createdAt,value
2023-04-04T00:09:12.968Z,96.10
2023-04-04T00:19:18.224Z,95.50
2023-04-04T00:29:23.270Z,96.60
2023-04-04T00:39:27.541Z,95.20
2023-04-04T00:49:33.781Z,95.50
2023-04-04T00:59:37.593Z,94.60
2023-04-04T01:09:42.997Z,93.70
2023-04-04T01:20:00.367Z,93.20
2023-04-04T01:30:07.492Z,92.70
2023-04-04T01:40:19.710Z,94.60
2023-04-04T01:50:24.937Z,94.30
2023-04-04T02:00:28.641Z,94.90
2023-04-04T02:10:33.639Z,93.70
2023-04-04T02:20:37.762Z,94.50
2023-04-04T02:30:43.102Z,97.00
2023-04-04T02:40:47.286Z,96.40
2023-04-04T02:50:52.354Z,95.80
2023-04-04T03:00:56.476Z,93.80
2023-04-04T03:11:01.624Z,93.30
2023-04-04T03:21:05.690Z,93.30
2023-04-04T03:31:10.656Z,93.70
2023-04-04T03:41:14.344Z,96.80
2023-04-04T03:51:25.646Z,98.50
2023-04-04T04:01:29.279Z,98.10
2023-04-04T04:11:34.375Z,97.60
2023-04-04T04:21:38.028Z,97.40
2023-04-04T04:31:43.379Z,98.50
2023-04-04T04:41:48.344Z,99.00
2023-04-04T04:51:53.693Z,98.70
2023-04-04T05:01:57.564Z,99.00
2023-04-04T05:12:02.739Z,99.30
2023-04-04T05:22:08.032Z,99.40
2023-04-04T05:32:13.377Z,99.70
2023-04-04T05:42:17.312Z,99.00
2023-04-04T05:52:22.441Z,98.80
2023-04-04T06:02:26.687Z,98.40
2023-04-04T06:12:32.023Z,98.60
2023-04-04T06:22:36.025Z,98.70
2023-04-04T06:32:45.090Z,97.80
2023-04-04T06:42:50.603Z,97.50
2023-04-04T06:52:57.325Z,96.30
2023-04-04T07:03:02.070Z,95.60
2023-04-04T07:13:07.270Z,94.10
2023-04-04T07:23:11.396Z,87.90
2023-04-04T07:33:16.537Z,79.90
2023-04-04T07:43:23.608Z,75.10
2023-04-04T07:53:28.992Z,76.00
2023-04-04T08:03:32.908Z,70.10
2023-04-04T08:13:39.035Z,70.00
2023-04-04T08:23:42.882Z,67.80
2023-04-04T08:33:48.122Z,67.10
2023-04-04T08:43:55.262Z,65.10
2023-04-04T08:54:03.444Z,63.20
2023-04-04T09:04:08.081Z,58.30
2023-04-04T09:14:13.167Z,58.20
2023-04-04T09:24:17.266Z,57.60
2023-04-04T09:34:22.311Z,58.60
2023-04-04T09:44:26.408Z,57.50
2023-04-04T09:54:32.931Z,57.90
2023-04-04T10:04:37.201Z,57.30
2023-04-04T10:14:42.849Z,55.90
2023-04-04T10:24:46.672Z,54.50
2023-04-04T10:35:00.774Z,53.20
2023-04-04T10:45:19.862Z,51.40
2023-04-04T10:55:27.389Z,55.80
2023-04-04T11:05:34.543Z,50.10
2023-04-04T11:15:55.663Z,52.50
2023-04-04T11:26:00.374Z,52.10
2023-04-04T11:36:25.646Z,52.60
2023-04-04T11:46:30.697Z,50.70
2023-04-04T11:56:37.729Z,51.10
2023-04-04T12:06:42.785Z,54.30
2023-04-04T12:16:50.542Z,52.00
2023-04-04T12:26:54.949Z,51.30
2023-04-04T12:37:02.848Z,51.30
2023-04-04T12:47:08.900Z,51.40
2023-04-04T12:57:19.947Z,51.20
2023-04-04T13:07:26.417Z,52.30
2023-04-04T13:17:44.494Z,50.20
2023-04-04T13:27:48.443Z,50.30
2023-04-04T13:37:53.586Z,50.70
2023-04-04T13:47:57.354Z,50.80
2023-04-04T13:58:02.728Z,49.50
2023-04-04T14:08:06.667Z,49.30
2023-04-04T14:18:12.297Z,46.70
2023-04-04T14:28:16.289Z,49.20
2023-04-04T14:38:21.673Z,46.10
2023-04-04T14:48:25.480Z,47.20
2023-04-04T14:58:30.593Z,46.50
2023-04-04T15:08:34.606Z,48.50
2023-04-04T15:18:40.224Z,47.00
2023-04-04T15:28:44.397Z,47.30
2023-04-04T15:38:49.953Z,47.20
2023-04-04T15:48:53.935Z,47.80
2023-04-04T15:59:02.439Z,46.70
2023-04-04T16:09:06.491Z,46.70
2023-04-04T16:19:14.129Z,44.10
2023-04-04T16:29:18.827Z,46.00
2023-04-04T16:39:24.257Z,45.30
2023-04-04T16:49:28.028Z,48.50
2023-04-04T16:59:35.084Z,49.20
2023-04-04T17:09:39.197Z,48.80
2023-04-04T17:19:44.531Z,47.00
2023-04-04T17:29:48.448Z,48.60
2023-04-04T17:39:54.079Z,47.00
2023-04-04T17:49:58.181Z,50.40
2023-04-04T18:00:03.760Z,55.20
2023-04-04T18:10:09.495Z,61.20
2023-04-04T18:20:27.779Z,65.40
2023-04-04T18:30:37.534Z,66.90
2023-04-04T18:40:45.296Z,69.90
2023-04-04T18:50:49.005Z,70.30
2023-04-04T19:00:55.752Z,69.20
2023-04-04T19:11:02.778Z,69.50
2023-04-04T19:21:10.052Z,71.90
2023-04-04T19:31:22.437Z,74.50
2023-04-04T19:41:35.981Z,74.50
2023-04-04T19:51:53.056Z,74.60
2023-04-04T20:02:00.862Z,75.40
2023-04-04T20:12:09.303Z,77.20
2023-04-04T20:22:16.305Z,87.00
2023-04-04T20:32:20.321Z,92.20
2023-04-04T20:42:40.225Z,94.00
2023-04-04T20:52:46.560Z,93.40
2023-04-04T21:02:51.946Z,92.20
2023-04-04T21:12:58.940Z,92.70
2023-04-04T21:23:07.230Z,94.40
2023-04-04T21:33:17.716Z,95.00
2023-04-04T21:43:22.724Z,96.20
2023-04-04T21:53:26.858Z,96.80
2023-04-04T22:03:32.002Z,97.80
2023-04-04T22:13:42.832Z,96.00
2023-04-04T22:23:48.094Z,96.90
2023-04-04T22:33:51.969Z,98.10
2023-04-04T22:43:57.432Z,98.30
2023-04-04T22:54:01.264Z,93.90
2023-04-04T23:04:06.609Z,93.00
2023-04-04T23:14:14.699Z,93.20
2023-04-04T23:24:19.697Z,93.70
2023-04-04T23:34:23.450Z,93.30
2023-04-04T23:44:28.575Z,93.50
2023-04-04T23:54:32.342Z,93.50
